Time;durP1;ratioP1;P1;durP2;ratioP2;P2;SDS_P1;SDS_P2;PMS_P1;PMS_P2;Temp;Humidity;BMP_temperature;BMP_pressure;BME280_temperature;BME280_humidity;BME280_pressure;Samples;Min_cycle;Max_cycle;Signal;HPM_P1;HPM_P2
2021/08/20 00:02:16;;;;;;;5.80;4.80;;;18.20;84.50;;;17.28;84.82;97959.25;5076222;28;20451;-78
2021/08/20 00:05:05;;;;;;;4.53;4.13;;;18.10;84.80;;;17.31;84.64;97962.53;5077036;28;20455;-78
2021/08/20 00:07:52;;;;;;;4.90;4.50;;;18.10;85.30;;;17.33;84.86;97969.38;5087285;28;20456;-78
2021/08/20 00:10:39;;;;;;;5.10;4.70;;;18.10;85.40;;;17.34;84.80;97960.09;5073278;28;20516;-78
2021/08/20 00:13:27;;;;;;;4.83;4.33;;;18.10;85.60;;;17.32;84.64;97953.25;5063581;28;20417;-78
2021/08/20 00:16:15;;;;;;;4.50;3.63;;;18.20;85.70;;;17.39;84.58;97951.13;5077017;28;20429;-78
2021/08/20 00:19:03;;;;;;;6.47;4.37;;;18.20;85.60;;;17.42;84.49;97954.16;5061516;28;20416;-78
2021/08/20 00:21:50;;;;;;;4.90;4.40;;;18.20;85.50;;;17.41;84.33;97947.03;5066667;28;20511;-77
2021/08/20 00:24:38;;;;;;;5.27;4.87;;;18.20;85.70;;;17.37;84.47;97954.13;5078393;28;20464;-78
2021/08/20 00:27:25;;;;;;;5.17;4.77;;;18.20;85.60;;;17.36;84.59;97954.38;5075215;28;20425;-77
2021/08/20 00:30:13;;;;;;;4.80;4.37;;;18.10;86.00;;;17.33;84.88;97949.44;5074408;28;20567;-77
2021/08/20 00:33:02;;;;;;;4.27;3.97;;;18.10;86.00;;;17.09;85.40;97933.44;5073815;28;20436;-78
2021/08/20 00:35:51;;;;;;;4.57;4.27;;;18.10;86.30;;;17.20;85.33;97953.44;5063333;28;20444;-77
2021/08/20 00:38:38;;;;;;;4.53;4.13;;;18.00;86.50;;;17.14;85.44;97949.84;5071541;28;20787;-77
2021/08/20 00:41:26;;;;;;;4.33;3.93;;;18.00;86.70;;;17.05;85.94;97945.94;5061506;28;20452;-78
2021/08/20 00:44:14;;;;;;;4.67;4.27;;;17.90;87.00;;;17.08;85.91;97943.50;5072889;28;20455;-78
2021/08/20 00:47:01;;;;;;;5.43;4.93;;;17.90;87.30;;;17.06;85.72;97942.13;5055010;28;20440;-77
2021/08/20 00:49:51;;;;;;;5.17;4.67;;;17.90;87.30;;;17.05;86.00;97944.03;5080527;28;21094;-77
2021/08/20 00:52:38;;;;;;;4.57;4.17;;;17.90;87.70;;;17.00;85.89;97946.72;5057247;28;20452;-77
2021/08/20 00:55:26;;;;;;;5.10;4.70;;;17.90;87.60;;;16.90;86.50;97932.97;5075083;28;20429;-78
2021/08/20 00:58:14;;;;;;;5.07;4.67;;;17.80;88.10;;;16.90;86.38;97931.03;5047397;28;21029;-78
2021/08/20 01:01:01;;;;;;;4.67;4.27;;;17.80;87.90;;;16.88;86.48;97949.56;5074261;28;20437;-77
2021/08/20 01:03:49;;;;;;;5.07;4.63;;;17.80;88.10;;;16.85;86.91;97940.03;5058822;28;20425;-79
2021/08/20 01:06:39;;;;;;;5.73;4.60;;;17.70;88.50;;;16.75;86.89;97928.16;5066232;28;20448;-79
2021/08/20 01:09:27;;;;;;;4.77;4.37;;;17.70;88.90;;;16.74;87.40;97931.97;5064065;28;20429;-78
2021/08/20 01:12:14;;;;;;;4.33;3.93;;;17.70;89.50;;;16.76;87.51;97933.38;5068546;28;20790;-78
2021/08/20 01:15:02;;;;;;;5.60;4.80;;;17.60;89.40;;;16.74;87.61;97938.25;5069454;28;20481;-78
2021/08/20 01:17:50;;;;;;;4.73;4.40;;;17.60;89.40;;;16.70;87.70;97927.03;5074284;28;20447;-78
2021/08/20 01:20:38;;;;;;;5.40;5.00;;;17.60;90.10;;;16.63;88.66;97931.06;5060549;28;20424;-78
2021/08/20 01:23:28;;;;;;;4.90;4.50;;;17.50;90.60;;;16.50;88.90;97913.22;5071562;28;20557;-78
2021/08/20 01:26:17;;;;;;;4.70;4.30;;;17.50;90.50;;;16.55;89.00;97924.16;5073576;28;20966;-79
2021/08/20 01:29:05;;;;;;;5.80;4.43;;;17.50;90.80;;;16.55;89.09;97925.00;5073410;28;20433;-77
2021/08/20 01:31:53;;;;;;;5.27;4.70;;;17.40;91.10;;;16.52;89.54;97924.69;5072128;28;20443;-77
2021/08/20 01:34:40;;;;;;;8.33;4.90;;;17.40;91.30;;;16.51;89.50;97928.47;5070724;28;20440;-78
2021/08/20 01:37:28;;;;;;;5.17;4.73;;;17.40;91.50;;;16.52;89.45;97921.94;5075005;28;20431;-78
2021/08/20 01:40:15;;;;;;;5.07;4.57;;;17.40;91.40;;;16.55;89.29;97919.53;5077690;28;20475;-77
2021/08/20 01:43:04;;;;;;;5.00;4.60;;;17.40;91.40;;;16.64;88.81;97928.09;5083103;28;20447;-78
2021/08/20 01:45:52;;;;;;;5.10;4.60;;;17.50;91.20;;;16.74;88.25;97915.59;5076873;28;20543;-80
2021/08/20 01:48:45;;;;;;;5.40;4.40;;;17.70;90.90;;;16.79;88.20;97923.84;5074521;28;20437;-78
2021/08/20 01:51:34;;;;;;;5.17;4.30;;;17.60;90.90;;;16.84;87.91;97915.72;5072275;28;20830;-77
2021/08/20 01:54:21;;;;;;;5.57;4.30;;;17.70;90.80;;;16.89;87.71;97923.94;5073903;28;20536;-77
2021/08/20 01:57:08;;;;;;;6.33;5.10;;;17.70;90.60;;;16.86;87.95;97927.19;5073636;28;20443;-78
2021/08/20 01:59:58;;;;;;;4.73;4.40;;;17.70;90.60;;;16.77;88.07;97918.66;5070497;28;20508;-78
2021/08/20 02:02:45;;;;;;;5.03;4.50;;;17.70;90.70;;;16.69;88.26;97914.47;5075055;28;20433;-79
2021/08/20 02:05:33;;;;;;;5.23;4.73;;;17.60;91.00;;;16.67;88.66;97935.75;5073556;28;20453;-79
2021/08/20 02:08:20;;;;;;;5.20;4.70;;;17.60;91.40;;;16.64;88.86;97928.09;5075346;28;20470;-79
2021/08/20 02:11:07;;;;;;;4.80;4.50;;;17.50;91.30;;;16.51;89.07;97921.13;5065365;28;20504;-79
2021/08/20 02:13:55;;;;;;;6.17;5.57;;;17.50;91.30;;;16.59;88.87;97928.00;5072727;28;20837;-79
2021/08/20 02:16:44;;;;;;;5.07;4.40;;;17.50;91.10;;;16.37;89.31;97917.13;5078614;28;20436;-79
2021/08/20 02:19:31;;;;;;;5.20;4.80;;;17.40;91.40;;;16.45;90.06;97924.03;5081827;28;20439;-78
2021/08/20 02:22:18;;;;;;;6.40;4.80;;;17.30;91.90;;;16.52;89.52;97927.41;5080942;28;20500;-79
2021/08/20 02:25:07;;;;;;;4.23;3.93;;;17.40;91.70;;;16.48;89.77;97929.00;5079324;28;20438;-79
2021/08/20 02:27:54;;;;;;;5.47;5.00;;;17.30;91.90;;;16.46;89.59;97923.00;5077847;28;20441;-78
2021/08/20 02:30:41;;;;;;;4.93;4.53;;;17.30;92.00;;;16.43;90.01;97927.84;5054723;28;20448;-78
2021/08/20 02:33:30;;;;;;;6.80;4.53;;;17.30;92.10;;;16.43;89.99;97929.78;5058174;28;20516;-78
2021/08/20 02:36:17;;;;;;;5.77;5.27;;;17.30;92.20;;;16.37;89.66;97900.78;5076473;28;20429;-79
2021/08/20 02:39:05;;;;;;;5.00;4.50;;;17.30;92.00;;;16.57;89.07;97927.44;5075021;28;20417;-79
2021/08/20 02:41:53;;;;;;;5.13;4.63;;;17.40;91.50;;;16.48;89.36;97918.09;5081641;28;20435;-78
2021/08/20 02:44:40;;;;;;;6.50;4.57;;;17.40;91.80;;;16.38;89.57;97927.81;5101975;28;20473;-78
2021/08/20 02:47:28;;;;;;;4.27;3.93;;;17.30;91.70;;;16.48;89.36;97923.56;5071847;28;20784;-78
2021/08/20 02:50:16;;;;;;;5.73;4.17;;;17.30;91.90;;;16.57;88.77;97917.38;5076267;28;20912;-79
2021/08/20 02:53:04;;;;;;;6.87;4.10;;;17.40;91.50;;;16.61;88.63;97925.03;5075943;28;20799;-78
2021/08/20 02:55:52;;;;;;;5.87;5.37;;;17.40;91.40;;;16.50;88.80;97921.38;5069147;28;20435;-79
2021/08/20 02:58:39;;;;;;;5.20;4.80;;;17.40;91.40;;;16.51;88.66;97917.59;5075822;28;20448;-78
2021/08/20 03:01:27;;;;;;;4.70;4.10;;;17.40;91.30;;;16.51;88.64;97923.03;5070330;28;20520;-79
2021/08/20 03:04:14;;;;;;;5.40;4.90;;;17.40;91.40;;;16.50;88.95;97932.28;5077589;28;20520;-78
2021/08/20 03:07:03;;;;;;;5.60;5.10;;;17.40;91.50;;;16.47;89.04;97928.16;5075073;28;20536;-79
2021/08/20 03:09:50;;;;;;;5.60;5.20;;;17.30;91.50;;;16.41;89.48;97921.03;5060455;28;20429;-79
2021/08/20 03:12:38;;;;;;;5.40;4.90;;;17.30;91.60;;;16.26;89.93;97903.41;5075090;28;20533;-78
2021/08/20 03:15:25;;;;;;;5.30;4.80;;;17.30;91.90;;;16.30;89.80;97922.78;5076273;28;20493;-78
2021/08/20 03:18:13;;;;;;;5.27;4.67;;;17.20;91.70;;;16.32;90.28;97922.53;5069855;28;20429;-78
2021/08/20 03:21:00;;;;;;;6.47;4.60;;;17.20;92.30;;;16.29;90.38;97926.59;5069003;28;20432;-78
2021/08/20 03:23:49;;;;;;;5.57;5.07;;;17.20;92.50;;;16.16;89.92;97888.84;5075468;28;20444;-79
2021/08/20 03:26:36;;;;;;;6.63;5.00;;;17.20;92.40;;;16.27;89.92;97923.31;5062738;28;20447;-79
2021/08/20 03:29:23;;;;;;;5.77;5.23;;;17.20;92.20;;;16.21;90.35;97927.06;5068422;28;20444;-78
2021/08/20 03:32:11;;;;;;;10.40;5.10;;;17.10;92.60;;;16.09;90.65;97922.56;5075555;28;20594;-79
2021/08/20 03:34:58;;;;;;;6.00;5.07;;;17.10;92.70;;;16.22;90.67;97931.44;5075170;28;20474;-79
2021/08/20 03:37:46;;;;;;;5.23;4.73;;;17.10;93.00;;;16.33;90.27;97926.91;5066318;28;20425;-78
2021/08/20 03:40:34;;;;;;;5.20;4.70;;;17.20;92.60;;;16.27;90.08;97923.31;5071447;28;20417;-78
2021/08/20 03:43:22;;;;;;;5.70;5.20;;;17.20;92.20;;;16.33;89.99;97925.03;5062369;28;20433;-79
2021/08/20 03:46:09;;;;;;;5.23;4.73;;;17.20;92.30;;;16.35;89.52;97927.47;5075265;28;20491;-78
2021/08/20 03:48:57;;;;;;;6.03;4.97;;;17.20;91.90;;;16.21;90.26;97921.63;5069534;28;20422;-78
2021/08/20 03:51:44;;;;;;;4.83;4.43;;;17.20;91.90;;;16.14;90.74;97919.06;5071969;28;20982;-79
2021/08/20 03:54:31;;;;;;;8.10;4.90;;;17.10;92.40;;;16.14;90.56;97925.34;5060214;28;20484;-78
2021/08/20 03:57:20;;;;;;;5.20;4.73;;;17.10;92.70;;;16.10;90.95;97929.66;5073004;28;20435;-78
2021/08/20 04:00:09;;;;;;;6.33;4.60;;;17.00;93.00;;;16.09;91.23;97910.84;5061799;28;20425;-78
2021/08/20 04:02:56;;;;;;;5.70;5.00;;;17.00;93.20;;;16.29;90.33;97932.03;5064801;28;20440;-78
2021/08/20 04:05:43;;;;;;;6.63;4.50;;;17.20;92.40;;;16.05;90.63;97924.16;5076917;28;20452;-78
2021/08/20 04:08:32;;;;;;;5.27;4.87;;;17.10;92.40;;;16.14;90.85;97936.25;5048556;28;20557;-78
2021/08/20 04:11:20;;;;;;;5.50;5.00;;;17.10;92.80;;;16.05;91.14;97920.59;5078892;28;20432;-77
2021/08/20 04:14:08;;;;;;;6.77;6.07;;;17.10;93.00;;;16.10;91.57;97924.19;5094324;28;21016;-78
2021/08/20 04:16:57;;;;;;;6.53;4.93;;;17.00;93.20;;;16.07;91.49;97938.34;5074863;28;20525;-79
2021/08/20 04:19:44;;;;;;;6.10;5.20;;;17.00;93.30;;;16.04;91.55;97943.47;5077047;28;20762;-78
2021/08/20 04:22:31;;;;;;;5.23;4.80;;;17.00;93.60;;;15.99;91.91;97942.34;5067579;28;20471;-78
2021/08/20 04:25:18;;;;;;;5.47;5.07;;;16.90;93.90;;;16.00;91.90;97943.97;5073373;28;20523;-78
2021/08/20 04:28:06;;;;;;;5.03;4.53;;;16.90;94.00;;;16.03;91.99;97945.38;5078841;28;20452;-79
2021/08/20 04:30:55;;;;;;;5.27;4.87;;;17.00;94.00;;;16.06;91.87;97942.16;5100087;28;20467;-79
2021/08/20 04:33:42;;;;;;;7.13;5.97;;;17.00;94.10;;;16.06;91.90;97950.31;5111597;28;20459;-79
2021/08/20 04:36:29;;;;;;;5.40;4.90;;;17.00;93.80;;;16.09;91.78;97955.25;5095581;28;20437;-79
2021/08/20 04:39:17;;;;;;;6.13;5.40;;;17.00;94.00;;;16.09;92.17;97954.44;5089624;28;20494;-79
2021/08/20 04:42:05;;;;;;;6.13;4.03;;;17.00;94.20;;;15.96;91.71;97926.50;5088857;28;20429;-78
2021/08/20 04:44:52;;;;;;;5.93;5.27;;;17.00;93.90;;;16.38;90.61;97944.16;5084429;28;20433;-80
2021/08/20 04:47:41;;;;;;;7.00;4.73;;;17.10;93.40;;;16.57;88.88;97939.19;5073453;28;20456;-78
2021/08/20 04:50:30;;;;;;;7.67;5.37;;;17.40;92.40;;;16.64;88.56;97949.91;5074728;28;20521;-79
2021/08/20 04:53:18;;;;;;;5.40;4.90;;;17.50;91.60;;;16.67;88.86;97946.66;5077771;28;20432;-79
2021/08/20 04:56:06;;;;;;;5.33;4.83;;;17.40;91.80;;;16.63;88.31;97945.53;5077783;28;20421;-79
2021/08/20 04:58:54;;;;;;;5.53;5.03;;;17.50;91.40;;;16.70;87.98;97954.31;5083651;28;20429;-79
2021/08/20 05:01:41;;;;;;;6.40;5.13;;;17.50;91.20;;;16.80;87.64;97947.31;5088747;28;20506;-79
2021/08/20 05:04:32;;;;;;;5.50;5.00;;;17.60;90.80;;;16.66;87.93;97947.75;5089177;28;20433;-78
2021/08/20 05:07:20;;;;;;;5.20;4.70;;;17.50;90.90;;;16.72;87.57;97951.34;5073989;28;20547;-78
2021/08/20 05:10:10;;;;;;;5.40;4.90;;;17.60;90.70;;;16.65;87.90;97958.88;5087290;28;20470;-79
2021/08/20 05:12:57;;;;;;;5.30;4.80;;;17.60;90.90;;;16.54;88.72;97956.06;5086503;28;20970;-79
2021/08/20 05:15:44;;;;;;;5.17;4.40;;;17.50;91.00;;;16.62;88.55;97959.41;5088522;28;20465;-78
2021/08/20 05:18:32;;;;;;;7.43;5.27;;;17.50;91.20;;;16.74;87.89;97971.00;5086153;28;20428;-78
2021/08/20 05:21:21;;;;;;;5.90;5.30;;;17.60;91.10;;;16.73;87.59;97963.91;5075813;28;20441;-78
2021/08/20 05:24:08;;;;;;;5.67;4.70;;;17.60;90.70;;;16.74;87.79;97972.88;5070326;28;20454;-78
2021/08/20 05:26:56;;;;;;;5.63;5.00;;;17.60;90.80;;;16.75;87.89;97969.91;5073020;28;20535;-77
2021/08/20 05:29:43;;;;;;;6.67;6.17;;;17.60;90.70;;;16.74;87.62;97959.25;5069841;28;20815;-78
2021/08/20 05:32:30;;;;;;;6.90;6.20;;;17.70;90.60;;;16.94;86.69;97975.84;5072251;28;20449;-78
2021/08/20 05:35:18;;;;;;;7.03;6.40;;;17.70;90.00;;;16.99;86.44;97967.72;5070615;28;20425;-78
2021/08/20 05:38:12;;;;;;;8.43;5.97;;;17.80;89.80;;;16.97;86.54;97975.31;5075998;28;20554;-80
2021/08/20 05:40:59;;;;;;;9.33;5.97;;;17.80;89.70;;;17.01;86.77;97985.75;5075315;28;20492;-80
2021/08/20 05:43:48;;;;;;;6.47;5.87;;;17.80;90.00;;;17.00;87.36;97974.03;5076902;28;20505;-80
2021/08/20 05:46:35;;;;;;;6.30;5.40;;;17.90;90.40;;;17.07;87.15;97980.06;5072819;28;20520;-80
2021/08/20 05:49:23;;;;;;;7.87;6.30;;;17.90;90.40;;;17.12;87.17;97990.22;5076836;28;20765;-81
2021/08/20 05:52:11;;;;;;;6.20;5.70;;;18.00;90.30;;;17.11;86.71;97991.31;5078021;28;20433;-80
2021/08/20 05:55:02;;;;;;;5.87;5.37;;;18.00;90.30;;;17.07;85.96;97990.19;5068048;28;20873;-80
2021/08/20 05:57:50;;;;;;;6.60;6.00;;;18.00;89.80;;;17.23;85.74;97994.69;5076259;28;20444;-79
2021/08/20 06:00:37;;;;;;;6.20;5.63;;;18.00;89.10;;;17.33;85.26;97993.13;5079533;28;20424;-79
2021/08/20 06:03:25;;;;;;;8.00;6.03;;;18.10;88.80;;;17.39;84.13;97981.97;5071734;28;20447;-80
2021/08/20 06:06:14;;;;;;;6.43;5.27;;;18.30;88.00;;;17.54;83.69;97994.94;5064540;28;20436;-79
2021/08/20 06:09:01;;;;;;;13.13;5.80;;;18.40;87.30;;;17.65;83.15;97992.28;5076055;28;20441;-79
2021/08/20 06:11:52;;;;;;;6.07;5.47;;;18.40;86.60;;;17.57;82.88;97982.66;5072997;28;21236;-79
2021/08/20 06:14:40;;;;;;;7.37;6.47;;;18.40;86.30;;;17.59;83.38;97993.34;5070987;28;20544;-79
2021/08/20 06:17:39;;;;;;;6.53;5.77;;;18.40;86.30;;;17.65;82.98;98006.78;5054380;28;20425;-78
2021/08/20 06:20:37;;;;;;;9.30;6.57;;;18.50;86.10;;;17.62;82.87;97984.59;5063705;28;20535;-80
2021/08/20 06:23:25;;;;;;;7.23;5.60;;;18.50;85.80;;;17.69;82.88;98001.59;5055483;28;20538;-78
2021/08/20 06:26:12;;;;;;;8.77;5.40;;;18.50;85.80;;;17.81;82.90;98007.69;5075851;28;20957;-79
2021/08/20 06:29:01;;;;;;;8.40;6.27;;;18.60;85.70;;;17.77;81.87;97981.97;5074172;28;20522;-79
2021/08/20 06:31:48;;;;;;;10.77;6.03;;;18.60;85.20;;;18.02;81.42;98005.13;5072866;28;20429;-78
2021/08/20 06:34:36;;;;;;;6.70;5.70;;;18.70;84.70;;;18.04;81.18;98010.31;5063149;28;20490;-79
2021/08/20 06:37:23;;;;;;;6.90;6.20;;;18.80;84.40;;;18.09;80.67;97997.50;5073584;28;20453;-81
2021/08/20 06:40:12;;;;;;;7.83;6.20;;;18.90;84.20;;;18.16;80.73;97997.25;5075537;28;20455;-79
2021/08/20 06:43:00;;;;;;;16.87;8.63;;;18.90;83.90;;;18.35;79.91;98000.38;5059442;28;21362;-79
2021/08/20 06:45:49;;;;;;;10.63;6.70;;;19.10;83.40;;;18.49;79.46;98013.56;5046174;28;20435;-79
2021/08/20 06:48:36;;;;;;;9.33;6.33;;;19.20;83.00;;;18.53;79.44;98010.00;5069384;28;20440;-80
2021/08/20 06:51:24;;;;;;;8.53;7.33;;;19.30;82.60;;;18.60;78.81;98009.75;5078381;28;20423;-79
2021/08/20 06:54:11;;;;;;;7.70;6.10;;;19.40;82.20;;;18.79;77.78;98007.34;5067570;28;20433;-80
2021/08/20 06:56:58;;;;;;;12.27;8.03;;;19.50;81.40;;;18.90;77.37;98013.69;5084217;28;20449;-80
2021/08/20 06:59:47;;;;;;;11.87;6.40;;;19.60;80.70;;;18.88;77.24;98007.66;5066247;28;20433;-79
2021/08/20 07:02:43;;;;;;;13.20;7.53;;;19.70;80.50;;;19.00;76.46;98003.84;5088246;28;20433;-82
2021/08/20 07:05:33;;;;;;;7.40;6.37;;;19.80;80.00;;;19.19;75.52;98005.00;5076732;28;20425;-81
2021/08/20 07:08:20;;;;;;;12.67;7.13;;;19.90;79.30;;;19.38;74.86;97997.03;5082200;28;20467;-83
2021/08/20 07:11:07;;;;;;;10.93;7.17;;;20.00;78.50;;;19.49;74.10;98000.63;5064852;28;20516;-81
2021/08/20 07:14:00;;;;;;;10.03;7.43;;;20.20;77.70;;;19.68;72.80;97987.16;5063712;28;20786;-82
2021/08/20 07:16:48;;;;;;;13.53;12.20;;;20.40;77.00;;;19.88;71.99;98003.88;5058125;28;20475;-82
2021/08/20 07:19:37;;;;;;;7.80;7.00;;;20.60;75.80;;;20.01;72.08;98002.50;5076375;28;20433;-83
2021/08/20 07:22:24;;;;;;;8.17;6.23;;;20.70;75.60;;;20.19;70.65;97993.69;5085657;28;20486;-83
2021/08/20 07:25:12;;;;;;;7.50;6.33;;;20.90;74.60;;;20.40;69.98;97996.34;5092916;28;20484;-82
2021/08/20 07:28:00;;;;;;;9.80;6.70;;;21.00;73.80;;;20.56;69.32;97991.63;5071449;28;20532;-83
2021/08/20 07:30:47;;;;;;;8.10;6.33;;;21.20;73.40;;;20.89;68.45;97994.75;5079202;28;20445;-77
2021/08/20 07:33:35;;;;;;;10.03;8.50;;;21.50;72.60;;;20.97;67.67;97992.50;5076852;28;20515;-77
2021/08/20 07:36:23;;;;;;;15.27;13.70;;;21.60;71.80;;;21.22;66.33;97986.84;5073430;28;21194;-76
2021/08/20 07:39:11;;;;;;;17.87;16.07;;;21.80;70.80;;;21.37;66.14;97998.81;5085292;28;20443;-82
2021/08/20 07:41:59;;;;;;;23.23;20.90;;;21.90;70.20;;;21.53;65.05;97996.75;5072572;28;20948;-82
2021/08/20 07:44:50;;;;;;;27.70;24.97;;;22.20;69.40;;;21.92;63.61;98003.31;5072555;28;20460;-83
2021/08/20 07:47:47;;;;;;;32.73;29.83;;;22.40;68.60;;;22.10;62.94;98011.94;5086782;28;20490;-82
2021/08/20 07:53:38;;;;;;;26.47;24.10;;;22.70;67.10;;;22.13;61.81;98009.41;5075320;28;20437;-81
2021/08/20 07:56:26;;;;;;;11.70;10.30;;;22.80;66.70;;;22.20;60.98;98022.81;5081733;28;20467;-79
2021/08/20 07:59:13;;;;;;;10.13;9.13;;;22.80;65.60;;;22.33;60.53;98013.84;5079947;28;20437;-78
2021/08/20 08:02:01;;;;;;;7.00;6.30;;;23.00;65.20;;;22.25;60.44;98021.94;5067673;28;20432;-77
2021/08/20 08:04:48;;;;;;;6.10;5.50;;;22.90;64.60;;;22.24;60.25;98025.81;5078107;28;20471;-80
2021/08/20 08:07:36;;;;;;;6.10;5.60;;;23.00;64.30;;;22.39;60.21;98016.56;5086035;28;20531;-81
2021/08/20 08:10:30;;;;;;;7.27;6.67;;;23.20;64.20;;;22.71;59.50;98023.34;5085109;28;20437;-80
2021/08/20 08:13:17;;;;;;;5.77;5.27;;;23.40;64.30;;;23.05;58.80;98027.84;5081921;28;20441;-81
2021/08/20 08:16:05;;;;;;;5.53;4.97;;;23.70;63.80;;;22.68;57.87;98012.94;5070011;28;20434;-81
2021/08/20 08:18:53;;;;;;;5.20;4.80;;;23.70;62.60;;;22.56;58.96;98021.59;5079420;28;20526;-79
2021/08/20 08:21:40;;;;;;;5.80;5.00;;;23.30;62.90;;;22.41;59.02;98025.34;5076654;28;20551;-80
2021/08/20 08:24:29;;;;;;;4.80;4.37;;;23.30;62.60;;;22.08;60.83;98028.72;5088729;28;20539;-79
2021/08/20 08:27:18;;;;;;;6.03;4.63;;;22.90;63.40;;;22.27;59.80;98034.31;5083105;28;20460;-78
2021/08/20 08:30:07;;;;;;;6.33;5.73;;;23.00;63.10;;;22.10;60.26;98043.00;5072666;28;20457;-76
2021/08/20 08:32:55;;;;;;;5.70;4.73;;;23.00;63.00;;;21.41;61.80;98037.53;5081227;28;20435;-76
2021/08/20 08:35:44;;;;;;;5.47;4.97;;;22.30;63.10;;;21.48;62.66;98032.53;5080977;28;20464;-78
2021/08/20 08:38:31;;;;;;;5.20;4.80;;;22.30;63.80;;;21.83;61.76;98032.56;5073308;28;20432;-78
2021/08/20 08:41:19;;;;;;;5.27;4.80;;;22.60;64.00;;;21.67;61.92;98029.94;5074903;28;20426;-78
2021/08/20 08:44:08;;;;;;;6.00;5.40;;;22.60;64.10;;;21.64;61.60;98023.03;5072864;28;20441;-78
2021/08/20 08:46:56;;;;;;;5.23;4.73;;;22.60;63.90;;;22.00;60.93;98040.38;5072376;28;20468;-79
2021/08/20 08:49:48;;;;;;;6.17;5.40;;;22.70;63.60;;;22.11;59.14;98038.34;5083625;28;20450;-79
2021/08/20 08:52:37;;;;;;;4.53;4.10;;;23.00;63.20;;;22.05;58.94;98021.88;5066364;28;20413;-79
2021/08/20 08:55:30;;;;;;;6.57;5.30;;;23.00;62.10;;;22.00;58.83;98038.44;5082580;28;20827;-80
2021/08/20 08:58:17;;;;;;;6.00;4.20;;;22.90;61.80;;;22.03;58.49;98032.34;5084110;28;20433;-82
2021/08/20 09:01:29;;;;;;;5.67;5.00;;;22.90;61.70;;;22.28;58.66;98044.19;5068309;28;20425;-80
2021/08/20 09:04:21;;;;;;;4.33;3.80;;;22.80;61.70;;;22.62;56.27;98032.25;5078051;28;20443;-81
2021/08/20 09:07:14;;;;;;;3.77;3.47;;;23.20;60.90;;;23.08;54.56;98031.94;5080354;28;20475;-83
2021/08/20 09:10:20;;;;;;;4.30;3.90;;;23.60;60.10;;;23.48;54.07;98033.28;5075455;28;20425;-84
2021/08/20 09:13:08;;;;;;;4.63;3.77;;;24.00;60.10;;;23.85;53.31;98033.50;5077618;28;20459;-79
2021/08/20 09:16:10;;;;;;;4.13;3.83;;;24.40;60.10;;;24.37;51.57;98029.81;5066961;28;20437;-76
2021/08/20 09:19:14;;;;;;;5.90;4.10;;;24.90;59.00;;;24.63;50.20;98023.78;5073032;28;20468;-84
2021/08/20 09:22:13;;;;;;;4.17;3.80;;;25.20;58.30;;;24.48;50.47;98027.66;5071621;28;20558;-78
2021/08/20 09:25:00;;;;;;;5.07;4.40;;;25.10;58.30;;;24.10;50.45;97956.91;5069797;28;20444;-80
2021/08/20 09:27:47;;;;;;;4.50;4.10;;;25.20;58.20;;;24.56;50.75;98015.91;5069661;28;20452;-80
2021/08/20 09:30:35;;;;;;;4.20;3.80;;;25.20;58.20;;;24.79;50.35;98024.28;5079620;28;20448;-79
2021/08/20 09:33:24;;;;;;;5.00;4.60;;;25.40;58.20;;;23.28;53.63;98033.63;5071834;28;20441;-77
2021/08/20 09:36:16;;;;;;;4.97;4.57;;;24.30;58.00;;;22.87;55.17;98033.06;5055730;28;20464;-79
2021/08/20 09:39:03;;;;;;;4.83;4.33;;;23.80;58.90;;;21.78;57.73;97971.00;5069840;28;20455;-78
2021/08/20 09:41:50;;;;;;;5.00;4.60;;;23.10;59.60;;;21.76;58.88;98036.47;5075863;28;20463;-80
2021/08/20 09:44:38;;;;;;;4.93;4.30;;;22.70;60.10;;;21.60;59.82;98029.41;5074681;28;20449;-78
2021/08/20 09:47:26;;;;;;;4.33;3.93;;;22.40;60.90;;;21.39;61.02;98040.56;5072463;28;20952;-78
2021/08/20 09:50:14;;;;;;;4.70;4.20;;;22.20;61.20;;;21.12;60.58;98022.63;5074313;28;20425;-78
2021/08/20 09:53:12;;;;;;;6.10;4.77;;;22.00;61.10;;;21.12;60.06;97991.59;5059921;28;20598;-77
2021/08/20 09:56:02;;;;;;;7.97;4.70;;;22.00;61.00;;;21.14;61.08;98038.81;5071025;28;20421;-78
2021/08/20 09:58:50;;;;;;;4.97;4.53;;;21.90;61.10;;;21.06;61.68;98023.75;5069188;28;21216;-79
2021/08/20 10:01:42;;;;;;;4.00;3.60;;;21.90;61.70;;;21.45;61.32;98039.41;5071415;28;21864;-78
2021/08/20 10:04:32;;;;;;;4.57;4.17;;;22.10;62.00;;;21.55;60.27;98037.69;5057345;28;20589;-79
2021/08/20 10:07:19;;;;;;;5.00;4.37;;;22.20;61.60;;;21.14;60.64;98001.16;5068975;28;20436;-76
2021/08/20 10:10:11;;;;;;;5.13;4.70;;;22.00;61.40;;;21.43;60.50;98036.13;5071053;28;20438;-78
2021/08/20 10:12:58;;;;;;;5.13;4.63;;;22.10;61.50;;;21.54;59.70;98033.31;5070214;28;20429;-78
2021/08/20 10:15:46;;;;;;;6.20;4.87;;;22.30;61.20;;;21.67;59.68;98029.09;5070055;28;20413;-80
2021/08/20 10:18:37;;;;;;;5.60;5.10;;;22.30;61.10;;;21.64;59.17;98025.00;5070748;28;20424;-79
2021/08/20 10:21:24;;;;;;;4.90;4.50;;;22.40;60.80;;;21.74;59.55;98030.41;5068925;28;20460;-81
2021/08/20 10:24:14;;;;;;;4.63;4.33;;;22.40;61.10;;;21.99;58.35;98025.78;5080279;28;20445;-80
2021/08/20 10:27:05;;;;;;;5.47;4.97;;;22.60;60.70;;;22.25;57.30;98020.03;5060996;28;20429;-80
2021/08/20 10:29:53;;;;;;;5.50;4.87;;;22.90;60.30;;;22.45;56.93;98023.63;5072905;28;20449;-80
2021/08/20 10:33:00;;;;;;;5.63;4.93;;;23.10;60.20;;;22.58;56.02;98022.97;5072186;28;20638;-80
2021/08/20 10:35:53;;;;;;;5.40;4.90;;;23.20;59.50;;;22.36;57.73;98021.53;5073269;28;20774;-77
2021/08/20 10:38:48;;;;;;;6.43;5.10;;;23.00;60.40;;;22.59;56.96;98018.25;5070461;28;20456;-79
2021/08/20 10:41:35;;;;;;;4.80;4.40;;;23.30;60.50;;;22.52;56.67;98010.38;5072367;28;20456;-77
2021/08/20 10:44:25;;;;;;;4.50;4.10;;;23.30;60.10;;;23.33;55.55;98011.47;5079183;28;20526;-78
2021/08/20 10:47:24;;;;;;;5.73;4.40;;;23.80;60.10;;;23.41;53.71;98012.75;5077321;28;20436;-84
2021/08/20 10:50:17;;;;;;;4.50;4.10;;;24.10;59.00;;;23.55;53.22;98008.09;5080139;28;20433;-84
2021/08/20 10:53:22;;;;;;;4.33;3.93;;;24.20;58.90;;;22.71;53.36;98020.59;5076333;28;20476;-83
2021/08/20 10:56:33;;;;;;;4.70;4.37;;;23.60;57.70;;;22.15;56.48;98014.63;5093822;28;20445;-85
2021/08/20 10:59:58;;;;;;;4.70;4.30;;;23.10;59.30;;;22.03;57.94;98020.53;5074145;28;20446;-81
2021/08/20 11:02:49;;;;;;;5.30;4.67;;;22.70;59.80;;;21.70;58.77;98009.31;5081836;28;20507;-83
2021/08/20 11:05:40;;;;;;;5.73;4.70;;;22.50;60.20;;;22.06;57.61;98014.44;5084385;28;20455;-84
2021/08/20 11:08:48;;;;;;;6.10;4.23;;;22.70;59.90;;;22.46;57.11;98004.09;5073901;28;20480;-83
2021/08/20 11:11:50;;;;;;;4.83;3.80;;;23.10;59.90;;;22.75;54.81;98003.19;5080575;28;20436;-83
2021/08/20 11:14:38;;;;;;;4.67;4.23;;;23.40;58.80;;;22.73;55.12;98007.34;5072510;28;20473;-85
2021/08/20 11:17:49;;;;;;;5.50;4.43;;;23.40;58.90;;;22.61;55.71;98007.78;5091893;28;20433;-77
2021/08/20 11:20:38;;;;;;;4.23;3.93;;;23.40;59.00;;;22.71;55.94;98010.41;5079364;28;20449;-77
2021/08/20 11:23:32;;;;;;;5.43;4.93;;;23.40;59.40;;;22.63;55.16;98000.84;5080168;28;20432;-75
2021/08/20 11:26:30;;;;;;;4.97;4.50;;;23.40;58.80;;;22.87;55.34;98012.94;5083369;28;20455;-77
2021/08/20 11:29:19;;;;;;;5.37;4.97;;;23.60;59.10;;;23.18;53.76;98005.06;5077260;28;20475;-75
2021/08/20 11:32:07;;;;;;;6.00;5.50;;;23.80;58.50;;;22.91;54.07;98016.75;5048342;28;20491;-77
2021/08/20 11:34:56;;;;;;;5.27;4.77;;;23.60;58.30;;;22.41;55.71;98014.34;5076007;28;20499;-76
2021/08/20 11:37:53;;;;;;;5.93;5.43;;;23.30;58.70;;;22.21;54.40;98021.69;5073558;28;20436;-77
2021/08/20 11:40:52;;;;;;;5.30;4.90;;;23.10;58.00;;;22.25;55.23;98014.53;5060725;28;20768;-76
2021/08/20 11:43:46;;;;;;;5.13;4.73;;;23.00;58.40;;;22.29;53.48;98017.47;5072631;28;21295;-75
2021/08/20 11:46:38;;;;;;;6.27;5.23;;;23.00;57.60;;;22.17;54.22;98015.16;5072276;28;20780;-75
2021/08/20 11:49:27;;;;;;;5.20;4.80;;;22.80;57.50;;;22.16;54.25;98013.50;5068719;28;20456;-75
2021/08/20 11:52:16;;;;;;;5.57;5.07;;;22.90;57.90;;;22.22;54.88;98020.63;5073810;28;20439;-77
2021/08/20 11:55:05;;;;;;;6.10;5.50;;;22.90;58.00;;;21.98;55.52;98002.16;5074817;28;20429;-78